Time;durP1;ratioP1;P1;durP2;ratioP2;P2;SDS_P1;SDS_P2;PMS_P1;PMS_P2;Temp;Humidity;BMP_temperature;BMP_pressure;BME280_temperature;BME280_humidity;BME280_pressure;Samples;Min_cycle;Max_cycle;Signal;HPM_P1;HPM_P2
2020/12/11 05:57:31;;;;;;;15.53;8.20;;;;;;;-1.85;68.59;100849.97;1797686;76;950670;-55
2020/12/11 06:00:00;;;;;;;16.65;7.87;;;;;;;-1.85;68.74;100846.57;1835703;78;21141;-57
2020/12/11 06:02:31;;;;;;;19.05;8.90;;;;;;;-1.83;68.62;100843.06;1835562;78;21169;-57
2020/12/11 06:04:59;;;;;;;20.02;9.58;;;;;;;-1.83;68.62;100843.06;1816061;78;21174;-55
2020/12/11 06:07:28;;;;;;;20.68;8.65;;;;;;;-1.82;68.55;100852.86;1835038;78;21577;-56
2020/12/11 06:09:57;;;;;;;17.15;8.10;;;;;;;-1.88;68.68;100847.94;1795328;79;21580;-55
2020/12/11 06:12:27;;;;;;;17.75;9.08;;;;;;;-1.82;68.68;100852.41;1815678;79;21130;-56
2020/12/11 06:15:05;;;;;;;21.73;9.20;;;;;;;-1.84;68.66;100854.20;1815467;77;21131;-56
2020/12/11 06:17:57;;;;;;;20.48;9.58;;;;;;;-1.81;68.74;100849.41;1802546;78;21575;-57
2020/12/11 06:20:27;;;;;;;17.87;8.85;;;;;;;-1.78;68.73;100845.47;1802803;79;21157;-56
2020/12/11 06:23:17;;;;;;;17.20;8.30;;;;;;;-1.74;68.73;100845.74;1835140;78;21167;-58
2020/12/11 06:25:54;;;;;;;19.67;8.85;;;;;;;-1.69;68.63;100848.99;1830331;78;21738;-59
2020/12/11 06:28:42;;;;;;;16.55;7.72;;;;;;;-1.67;68.53;100858.77;1833927;77;22170;-57
2020/12/11 06:31:16;;;;;;;20.12;9.18;;;;;;;-1.67;68.53;100858.77;1723212;81;21307;-60
2020/12/11 06:33:51;;;;;;;18.20;8.10;;;;;;;-1.72;68.40;100857.63;1727168;81;21142;-58
2020/12/11 06:36:20;;;;;;;19.05;8.60;;;;;;;-1.80;68.60;100862.59;1722567;81;22441;-58
2020/12/11 06:38:58;;;;;;;18.65;9.28;;;;;;;-1.79;68.80;100860.02;1746227;81;21637;-58
2020/12/11 06:41:35;;;;;;;16.75;8.58;;;;;;;-1.79;68.80;100860.02;1737255;82;21186;-59
2020/12/11 06:44:13;;;;;;;14.58;8.40;;;;;;;-1.88;69.06;100861.58;1731999;81;21184;-57
2020/12/11 06:46:42;;;;;;;19.67;8.68;;;;;;;-1.88;69.06;100861.58;1730497;81;21649;-59
2020/12/11 06:49:13;;;;;;;19.57;9.48;;;;;;;-1.86;68.94;100861.11;1714388;81;21608;-58
2020/12/11 06:51:53;;;;;;;18.92;8.15;;;;;;;-1.90;68.96;100857.80;1723417;82;21618;-58
2020/12/11 06:54:29;;;;;;;19.15;8.80;;;;;;;-1.95;69.20;100856.27;1717718;83;21607;-59
2020/12/11 06:57:00;;;;;;;17.60;8.23;;;;;;;-1.94;69.23;100860.05;1716877;82;21187;-59
2020/12/11 06:59:39;;;;;;;16.90;8.93;;;;;;;-1.98;69.31;100855.94;1721878;82;21574;-60
2020/12/11 07:04:54;;;;;;;18.20;8.10;;;;;;;-1.98;69.54;100866.63;1834472;77;22261;-58
2020/12/11 07:07:29;;;;;;;19.55;7.97;;;;;;;-1.98;69.62;100860.23;1773563;78;21962;-57
2020/12/11 07:09:58;;;;;;;16.70;8.25;;;;;;;-1.93;69.64;100857.05;1791742;78;21087;-59
2020/12/11 07:12:26;;;;;;;17.75;8.85;;;;;;;-1.92;69.53;100858.30;1778035;78;21588;-57
2020/12/11 07:14:55;;;;;;;16.52;8.25;;;;;;;-1.91;69.68;100854.02;1770713;80;21186;-57
2020/12/11 07:17:26;;;;;;;17.25;8.53;;;;;;;-1.88;69.61;100848.77;1770511;78;21541;-57
2020/12/11 07:19:58;;;;;;;15.00;7.67;;;;;;;-1.86;69.61;100852.55;1766057;79;21181;-58
2020/12/11 07:22:26;;;;;;;16.82;7.50;;;;;;;-1.81;69.69;100850.69;1773274;78;21755;-58
2020/12/11 07:24:54;;;;;;;16.52;7.42;;;;;;;-1.74;69.66;100845.74;1817816;78;21194;-57
2020/12/11 07:27:30;;;;;;;17.75;7.30;;;;;;;-1.70;69.52;100843.03;1726671;80;21526;-58
2020/12/11 07:30:19;;;;;;;20.52;8.13;;;;;;;-1.56;69.29;100845.12;1764803;78;21299;-57
2020/12/11 07:33:09;;;;;;;14.93;7.40;;;;;;;-1.56;69.29;100845.12;1717686;81;21174;-59
2020/12/11 07:35:52;;;;;;;15.48;8.30;;;;;;;-1.51;69.24;100836.00;1706941;81;21132;-60
2020/12/11 07:38:35;;;;;;;16.75;7.12;;;;;;;-1.45;69.13;100844.30;1731190;81;21693;-61
2020/12/11 07:41:23;;;;;;;16.23;7.10;;;;;;;-1.40;69.09;100849.28;1714349;84;21567;-60
2020/12/11 07:43:57;;;;;;;17.60;8.70;;;;;;;-1.41;68.96;100842.48;1699618;82;21147;-60
2020/12/11 07:46:37;;;;;;;12.68;6.55;;;;;;;-1.40;68.99;100837.75;1736503;81;22143;-60
2020/12/11 07:49:15;;;;;;;14.93;6.53;;;;;;;-1.33;69.01;100831.95;1727672;81;21141;-60
2020/12/11 07:51:49;;;;;;;15.00;7.45;;;;;;;-1.31;68.91;100832.73;1729569;82;21222;-60
2020/12/11 07:54:18;;;;;;;16.35;8.20;;;;;;;-1.30;68.82;100833.14;1742213;81;21570;-57
2020/12/11 07:56:46;;;;;;;15.38;7.22;;;;;;;-1.28;68.90;100827.05;1735641;81;21202;-56
2020/12/11 07:59:15;;;;;;;18.95;7.95;;;;;;;-1.15;68.61;100833.86;1741859;81;21150;-60
2020/12/11 08:01:48;;;;;;;18.45;6.80;;;;;;;-1.14;68.32;100836.81;1724309;81;21542;-64
2020/12/11 08:04:19;;;;;;;15.93;7.50;;;;;;;-1.14;68.32;100836.81;1733784;81;21111;-59
2020/12/11 08:07:06;;;;;;;15.75;7.05;;;;;;;-0.99;68.17;100835.43;1729050;81;21183;-60
2020/12/11 08:09:40;;;;;;;12.60;6.50;;;;;;;-0.99;68.17;100835.43;1722917;82;21146;-56
2020/12/11 08:12:14;;;;;;;13.18;7.50;;;;;;;-1.01;67.92;100835.47;1769938;79;21745;-59
2020/12/11 08:14:43;;;;;;;13.50;6.75;;;;;;;-1.07;67.99;100838.25;1769837;80;21127;-59
2020/12/11 08:17:13;;;;;;;16.42;7.35;;;;;;;-1.04;67.88;100839.44;1761756;80;21282;-56
2020/12/11 08:19:43;;;;;;;15.03;7.60;;;;;;;-1.03;67.73;100835.98;1757382;80;21142;-56
2020/12/11 08:22:16;;;;;;;18.70;7.53;;;;;;;-1.10;67.64;100834.53;1772916;80;21195;-59
2020/12/11 08:24:44;;;;;;;15.10;7.47;;;;;;;-1.12;67.83;100832.45;1765331;79;21163;-57
2020/12/11 08:27:27;;;;;;;16.67;7.78;;;;;;;-1.03;67.79;100828.73;1769424;80;21516;-57
2020/12/11 08:30:08;;;;;;;14.95;8.05;;;;;;;-1.00;67.56;100829.44;1784905;80;21176;-58
2020/12/11 08:32:38;;;;;;;18.32;8.43;;;;;;;-0.97;67.56;100827.22;1770149;80;21590;-57
2020/12/11 08:35:21;;;;;;;18.15;8.20;;;;;;;-0.96;67.31;100826.33;1773494;79;21565;-58
2020/12/11 08:37:58;;;;;;;16.90;7.83;;;;;;;-0.94;67.25;100830.49;1759509;80;21135;-56
2020/12/11 08:40:27;;;;;;;18.05;6.65;;;;;;;-0.90;66.55;100811.98;1768924;80;21147;-59
2020/12/11 08:49:07;;;;;;;16.17;7.90;;;;;;;-1.01;66.79;100823.09;1776233;79;21145;-60
2020/12/11 08:51:37;;;;;;;19.42;9.60;;;;;;;-1.06;66.94;100824.98;1771839;79;21302;-60
2020/12/11 08:54:27;;;;;;;13.90;8.18;;;;;;;-1.09;67.18;100813.95;1777646;80;21261;-60
2020/12/11 08:56:56;;;;;;;16.65;8.20;;;;;;;-1.09;67.18;100813.95;1774021;80;21611;-60
2020/12/11 08:59:25;;;;;;;15.53;7.62;;;;;;;-1.06;67.24;100810.88;1764349;79;21107;-60
2020/12/11 09:01:54;;;;;;;17.62;8.30;;;;;;;-1.06;67.24;100810.88;1706957;83;21759;-62
2020/12/11 09:04:25;;;;;;;21.17;10.70;;;;;;;-1.00;67.15;100799.94;1715676;83;21176;-60
2020/12/11 09:06:54;;;;;;;20.55;10.68;;;;;;;-1.00;67.15;100802.50;1719290;82;21602;-59
2020/12/11 09:09:22;;;;;;;17.65;8.73;;;;;;;-0.95;67.17;100804.45;1716444;82;21151;-57
2020/12/11 09:11:50;;;;;;;21.37;10.13;;;;;;;-0.78;67.03;100798.69;1722194;81;21642;-57
2020/12/11 09:14:19;;;;;;;17.50;8.38;;;;;;;-0.78;67.03;100798.69;1726163;81;21299;-57
2020/12/11 09:16:47;;;;;;;14.87;7.87;;;;;;;-0.74;66.87;100798.97;1714778;82;21703;-56
2020/12/11 09:19:17;;;;;;;16.80;8.15;;;;;;;-0.73;66.57;100799.80;1718305;82;21144;-57
2020/12/11 09:21:45;;;;;;;15.75;7.50;;;;;;;-0.68;66.60;100800.02;1711542;84;21206;-58
2020/12/11 09:24:14;;;;;;;16.05;7.75;;;;;;;-0.70;66.63;100799.22;1769417;79;21167;-57
2020/12/11 09:26:42;;;;;;;17.95;8.10;;;;;;;-0.70;66.63;100799.22;1768141;79;21158;-58
2020/12/11 09:29:23;;;;;;;16.60;8.13;;;;;;;-0.66;66.44;100804.63;1778552;79;21272;-57
2020/12/11 09:31:46;;;;;;;17.45;7.83;;;;;;;-0.66;66.44;100804.63;1813948;79;21186;-58
2020/12/11 09:34:14;;;;;;;17.17;7.67;;;;;;;-0.70;66.28;100804.36;1710837;82;21185;-58
2020/12/11 09:36:42;;;;;;;15.70;7.10;;;;;;;-0.70;66.28;100804.36;1765237;79;21147;-59
2020/12/11 09:39:11;;;;;;;18.15;7.53;;;;;;;-0.76;66.55;100807.16;1747246;81;21126;-57
2020/12/11 09:41:42;;;;;;;16.95;7.05;;;;;;;-0.76;66.65;100806.33;1758147;79;21127;-58
2020/12/11 09:49:26;;;;;;;15.15;7.12;;;;;;;-0.74;66.76;100789.16;1719369;78;21157;-56
2020/12/11 09:52:01;;;;;;;14.90;7.62;;;;;;;-0.74;66.76;100789.16;1725881;81;21141;-56
2020/12/11 09:54:25;;;;;;;13.58;7.22;;;;;;;-0.69;66.86;100788.50;1742751;80;21649;-59
2020/12/11 09:56:57;;;;;;;17.98;8.70;;;;;;;-0.67;66.41;100782.44;1738097;80;21162;-56
2020/12/11 09:59:32;;;;;;;14.63;7.67;;;;;;;-0.67;66.41;100782.44;1748352;81;22033;-59
2020/12/11 10:04:27;;;;;;;18.02;7.80;;;;;;;-0.46;66.45;100778.17;1735444;81;21594;-56
2020/12/11 10:06:56;;;;;;;15.70;7.40;;;;;;;-0.46;66.45;100778.17;1741778;82;21529;-57
2020/12/11 10:09:27;;;;;;;18.52;7.65;;;;;;;-0.40;66.26;100774.08;1731425;81;21589;-56
2020/12/11 10:12:00;;;;;;;15.68;7.22;;;;;;;-0.35;66.04;100776.47;1733019;81;21736;-57
2020/12/11 10:14:33;;;;;;;15.08;7.65;;;;;;;-0.28;65.81;100774.87;1730615;81;21176;-58
2020/12/11 10:17:00;;;;;;;14.90;7.92;;;;;;;-0.28;65.81;100774.87;1738047;81;21159;-58
2020/12/11 10:19:29;;;;;;;15.50;7.67;;;;;;;-0.19;65.65;100771.52;1725541;81;21767;-60
2020/12/11 10:21:57;;;;;;;15.55;7.33;;;;;;;-0.10;65.42;100757.86;1728070;82;21171;-59
2020/12/11 10:24:26;;;;;;;16.37;7.85;;;;;;;-0.10;65.42;100757.86;1713656;81;21230;-60
2020/12/11 10:26:54;;;;;;;19.12;9.33;;;;;;;-0.09;65.16;100757.41;1724102;82;21182;-60
2020/12/11 10:29:23;;;;;;;17.77;7.17;;;;;;;-0.02;65.19;100753.68;1726364;81;21340;-59
2020/12/11 10:31:52;;;;;;;11.35;5.85;;;;;;;0.08;64.96;100743.86;1722512;82;21579;-59
2020/12/11 10:34:21;;;;;;;17.15;7.35;;;;;;;0.11;64.65;100741.14;1727803;81;21634;-58
2020/12/11 10:36:49;;;;;;;13.13;7.12;;;;;;;0.11;64.09;100739.86;1725861;81;21563;-58
2020/12/11 10:39:18;;;;;;;17.30;7.00;;;;;;;0.11;64.09;100739.86;1732510;82;21332;-57
2020/12/11 10:41:47;;;;;;;18.75;8.80;;;;;;;0.10;63.86;100742.05;1723652;82;21281;-58
2020/12/11 10:44:15;;;;;;;15.32;7.03;;;;;;;0.13;63.92;100732.48;1730140;81;21790;-58
2020/12/11 10:46:43;;;;;;;14.25;7.15;;;;;;;0.15;63.87;100733.70;1710299;82;21196;-56
2020/12/11 10:49:12;;;;;;;13.75;6.65;;;;;;;0.25;63.83;100728.11;1692784;83;21182;-57
2020/12/11 10:51:41;;;;;;;14.13;6.50;;;;;;;0.25;63.83;100728.11;1715877;81;21103;-57
2020/12/11 10:54:10;;;;;;;13.22;7.42;;;;;;;0.32;63.47;100716.27;1687860;81;21176;-56
2020/12/11 10:56:39;;;;;;;13.50;6.42;;;;;;;0.31;62.71;100717.14;1705706;81;21147;-56
2020/12/11 10:59:08;;;;;;;14.63;7.05;;;;;;;0.31;62.71;100717.14;1721123;81;21290;-57
2020/12/11 11:01:36;;;;;;;15.80;7.28;;;;;;;0.27;62.78;100719.03;1712032;81;21273;-57
2020/12/11 11:04:07;;;;;;;12.90;6.35;;;;;;;0.31;62.78;100715.86;1704013;84;21191;-57
2020/12/11 11:06:42;;;;;;;16.70;7.37;;;;;;;0.22;62.52;100718.39;1705154;81;21316;-57
2020/12/11 11:09:16;;;;;;;16.37;7.62;;;;;;;0.22;62.52;100718.39;1704162;83;21185;-56
2020/12/11 11:11:50;;;;;;;15.85;7.75;;;;;;;0.23;62.58;100714.92;1710318;81;21602;-57
2020/12/11 11:19:35;;;;;;;14.58;7.22;;;;;;;0.39;62.53;100702.23;1834891;77;22623;-56
2020/12/11 11:27:36;;;;;;;16.40;6.75;;;;;;;0.26;62.03;100701.95;1724120;81;21763;-56
2020/12/11 11:30:03;;;;;;;14.90;7.30;;;;;;;0.20;62.15;100692.77;1734432;81;21170;-56
2020/12/11 11:32:32;;;;;;;12.93;6.55;;;;;;;0.20;62.07;100689.36;1746717;81;21609;-56
2020/12/11 11:35:01;;;;;;;13.88;7.03;;;;;;;0.29;61.81;100681.69;1720641;81;21162;-56
2020/12/11 11:37:30;;;;;;;17.55;6.92;;;;;;;0.29;61.81;100681.69;1726452;81;21202;-56
2020/12/11 11:39:58;;;;;;;15.78;7.45;;;;;;;0.41;61.66;100676.00;1741857;81;21677;-56
2020/12/11 11:42:27;;;;;;;16.40;7.53;;;;;;;0.42;61.46;100667.37;1773497;80;21763;-56
2020/12/11 11:44:59;;;;;;;16.37;8.20;;;;;;;0.42;61.46;100667.37;1712880;81;21148;-57
2020/12/11 11:47:26;;;;;;;14.75;6.80;;;;;;;0.44;61.16;100663.84;1722475;83;21281;-56
2020/12/11 11:50:09;;;;;;;17.80;6.78;;;;;;;0.39;61.15;100660.65;1722702;81;21150;-56
2020/12/11 11:52:32;;;;;;;14.43;7.03;;;;;;;0.39;61.05;100667.08;1714840;82;21202;-56
2020/12/11 11:54:56;;;;;;;15.35;7.30;;;;;;;0.35;60.93;100659.56;1699791;84;22287;-57
2020/12/11 11:57:26;;;;;;;14.28;7.15;;;;;;;0.32;60.99;100663.57;1714967;84;21587;-56
2020/12/11 11:59:55;;;;;;;12.65;6.72;;;;;;;0.36;60.80;100665.08;1689140;83;21159;-56
2020/12/11 12:02:24;;;;;;;12.28;6.45;;;;;;;0.35;60.60;100664.25;1725641;83;21186;-56
2020/12/11 12:04:52;;;;;;;13.38;6.65;;;;;;;0.30;60.68;100660.21;1725902;83;21562;-56
2020/12/11 12:07:21;;;;;;;14.33;6.62;;;;;;;0.29;60.33;100664.98;1725620;83;21182;-57
2020/12/11 12:09:52;;;;;;;15.05;6.20;;;;;;;0.20;60.24;100664.95;1725926;83;21653;-56
2020/12/11 12:12:21;;;;;;;15.38;6.65;;;;;;;0.16;60.27;100664.69;1704160;82;21169;-56
2020/12/11 12:14:51;;;;;;;15.10;6.65;;;;;;;0.12;60.28;100668.29;1676280;84;21169;-56
2020/12/11 12:17:29;;;;;;;18.12;8.58;;;;;;;0.10;60.44;100658.08;1691536;84;21235;-58
2020/12/11 12:19:55;;;;;;;14.15;7.62;;;;;;;0.13;60.47;100659.70;1739233;82;21155;-57
2020/12/11 12:23:13;;;;;;;16.60;8.50;;;;;;;0.15;60.34;100653.58;1748134;82;21630;-57
2020/12/11 12:30:33;;;;;;;17.95;7.70;;;;;;;0.21;60.37;100662.76;1744974;82;21648;-57
2020/12/11 12:36:19;;;;;;;14.13;6.75;;;;;;;0.24;60.29;100660.03;1735814;82;21163;-58
2020/12/11 12:43:59;;;;;;;15.18;6.78;;;;;;;0.26;59.77;100651.38;1756226;81;21143;-58
2020/12/11 12:46:30;;;;;;;15.48;6.95;;;;;;;0.22;59.92;100652.40;1737247;81;21194;-58
2020/12/11 12:48:59;;;;;;;15.53;6.75;;;;;;;0.15;59.87;100646.33;1744973;80;21578;-58
2020/12/11 12:51:28;;;;;;;14.87;7.20;;;;;;;0.15;59.87;100646.33;1742291;82;21197;-57
2020/12/11 12:53:56;;;;;;;11.80;6.58;;;;;;;0.15;59.95;100648.89;1739451;82;21150;-58
2020/12/11 12:59:20;;;;;;;11.70;6.60;;;;;;;-0.03;59.95;100647.97;1821136;77;22255;-57
2020/12/11 13:04:32;;;;;;;12.78;7.12;;;;;;;-0.37;60.89;100639.62;1783576;80;21578;-57
2020/12/11 13:06:51;;;;;;;15.40;7.72;;;;;;;-0.46;60.80;100634.86;1793194;79;21208;-58
2020/12/11 13:09:20;;;;;;;16.73;9.60;;;;;;;-0.55;60.97;100631.78;1785052;79;21487;-58
2020/12/11 13:11:50;;;;;;;13.20;6.12;;;;;;;-0.67;61.20;100625.05;1770203;80;21630;-59
2020/12/11 13:14:19;;;;;;;12.20;6.15;;;;;;;-0.67;61.20;100625.05;1797561;78;21123;-59
2020/12/11 13:16:47;;;;;;;14.28;6.22;;;;;;;-0.75;61.27;100620.20;1715860;83;21121;-59
2020/12/11 13:19:19;;;;;;;10.18;5.87;;;;;;;-0.94;61.83;100635.52;1744011;81;21557;-59
2020/12/11 13:27:25;;;;;;;13.05;6.10;;;;;;;-1.14;62.12;100636.32;1730693;82;21321;-57
2020/12/11 13:29:54;;;;;;;11.33;6.10;;;;;;;-1.17;62.38;100636.45;1720002;83;21174;-59
2020/12/11 13:32:22;;;;;;;12.40;6.37;;;;;;;-1.17;62.45;100626.66;1730167;82;21608;-58
2020/12/11 13:34:51;;;;;;;13.00;6.78;;;;;;;-1.25;62.54;100627.37;1741822;82;21131;-58
2020/12/11 13:37:20;;;;;;;12.90;6.50;;;;;;;-1.36;62.77;100625.25;1731426;81;21654;-58
2020/12/11 13:39:51;;;;;;;13.58;6.10;;;;;;;-1.39;62.94;100631.32;1737032;82;21276;-58
2020/12/11 13:42:20;;;;;;;12.70;5.80;;;;;;;-1.42;63.06;100628.06;1692110;83;21337;-59
2020/12/11 13:44:48;;;;;;;12.23;6.62;;;;;;;-1.45;63.19;100628.16;1726053;82;22177;-58
2020/12/11 13:47:17;;;;;;;13.58;6.25;;;;;;;-1.50;63.17;100630.06;1720108;83;21625;-59
2020/12/11 13:49:47;;;;;;;11.12;5.65;;;;;;;-1.50;63.31;100630.06;1717045;81;21584;-58
2020/12/11 13:52:15;;;;;;;12.30;6.47;;;;;;;-1.51;63.47;100638.20;1692955;83;21745;-58
2020/12/11 13:54:44;;;;;;;11.78;5.87;;;;;;;-1.61;63.69;100642.02;1698834;83;21610;-58
2020/12/11 13:57:12;;;;;;;14.60;7.10;;;;;;;-1.63;63.84;100642.50;1693367;83;21622;-58
2020/12/11 13:59:41;;;;;;;13.40;6.87;;;;;;;-1.64;63.92;100643.40;1705202;84;21598;-58
2020/12/11 14:02:09;;;;;;;14.63;7.37;;;;;;;-1.71;64.00;100644.08;1705055;84;21195;-58
2020/12/11 14:04:37;;;;;;;11.88;6.65;;;;;;;-1.71;64.15;100647.92;1698285;84;21594;-57
2020/12/11 14:07:05;;;;;;;12.73;6.95;;;;;;;-1.72;64.20;100652.66;1703120;83;21595;-59
2020/12/11 14:09:34;;;;;;;15.95;8.18;;;;;;;-1.74;64.37;100648.05;1727069;83;21574;-59
2020/12/11 14:12:02;;;;;;;16.20;7.33;;;;;;;-1.76;64.43;100648.52;1753865;80;21603;-58
2020/12/11 14:14:31;;;;;;;16.62;7.22;;;;;;;-1.81;64.59;100647.86;1750088;80;21647;-59
2020/12/11 14:17:00;;;;;;;14.78;7.17;;;;;;;-1.84;64.74;100643.31;1770123;80;21603;-58
2020/12/11 14:24:37;;;;;;;13.88;6.83;;;;;;;-2.01;65.08;100647.75;1753725;82;21166;-58
2020/12/11 14:27:05;;;;;;;15.30;6.83;;;;;;;-2.08;65.43;100656.55;1754021;82;21185;-57
2020/12/11 14:29:34;;;;;;;15.25;7.00;;;;;;;-2.09;65.52;100649.76;1712231;83;21573;-57
2020/12/11 14:32:07;;;;;;;11.15;6.20;;;;;;;-2.13;65.66;100646.45;1727375;82;21170;-58
2020/12/11 14:34:41;;;;;;;14.25;6.97;;;;;;;-2.15;65.93;100654.64;1726695;82;21135;-57
2020/12/11 14:37:06;;;;;;;16.48;6.22;;;;;;;-2.15;65.93;100654.64;1728240;82;21487;-58
2020/12/11 14:39:35;;;;;;;13.08;6.22;;;;;;;-2.14;66.05;100656.31;1747452;82;21574;-55
2020/12/11 14:42:03;;;;;;;12.10;5.78;;;;;;;-2.12;66.22;100662.66;1754950;82;21655;-56
2020/12/11 14:44:34;;;;;;;12.93;6.15;;;;;;;-2.16;66.20;100649.14;1691674;83;21740;-57
2020/12/11 14:47:03;;;;;;;13.70;6.00;;;;;;;-2.16;66.20;100649.14;1751341;82;21091;-56
